sensor_id;sensor_type;location;lat;lon;timestamp;temperature;humidity
77700;DHT22;66867;42.658;23.320;2023-03-20T00:00:00;7.8;69
77700;DHT22;66867;42.658;23.320;2023-03-20T00:01:00;7.8;69
77700;DHT22;66867;42.658;23.320;2023-03-20T00:02:00;7.8;68
77700;DHT22;66867;42.658;23.320;2023-03-20T00:03:00;7.8;68
77700;DHT22;66867;42.658;23.320;2023-03-20T00:04:00;7.7;68
77700;DHT22;66867;42.658;23.320;2023-03-20T00:05:00;7.7;68
77700;DHT22;66867;42.658;23.320;2023-03-20T00:06:00;7.7;68
77700;DHT22;66867;42.658;23.320;2023-03-20T00:07:00;7.7;68
77700;DHT22;66867;42.658;23.320;2023-03-20T00:08:00;7.7;68
77700;DHT22;66867;42.658;23.320;2023-03-20T00:09:00;7.7;68
77700;DHT22;66867;42.658;23.320;2023-03-20T00:10:00;7.6;68
77700;DHT22;66867;42.658;23.320;2023-03-20T00:11:00;7.6;69
77700;DHT22;66867;42.658;23.320;2023-03-20T00:12:00;7.6;69
77700;DHT22;66867;42.658;23.320;2023-03-20T00:13:00;7.6;69
77700;DHT22;66867;42.658;23.320;2023-03-20T00:14:02;7.6;69
77700;DHT22;66867;42.658;23.320;2023-03-20T00:15:00;7.6;69
77700;DHT22;66867;42.658;23.320;2023-03-20T00:16:00;7.5;69
77700;DHT22;66867;42.658;23.320;2023-03-20T00:17:00;7.5;69
77700;DHT22;66867;42.658;23.320;2023-03-20T00:18:00;7.5;69
77700;DHT22;66867;42.658;23.320;2023-03-20T00:19:00;7.5;69
77700;DHT22;66867;42.658;23.320;2023-03-20T00:20:00;7.5;69
77700;DHT22;66867;42.658;23.320;2023-03-20T00:21:00;7.5;69
77700;DHT22;66867;42.658;23.320;2023-03-20T00:22:00;7.4;69
77700;DHT22;66867;42.658;23.320;2023-03-20T00:23:00;7.4;69
77700;DHT22;66867;42.658;23.320;2023-03-20T00:24:00;7.4;69
77700;DHT22;66867;42.658;23.320;2023-03-20T00:25:00;7.4;69
77700;DHT22;66867;42.658;23.320;2023-03-20T00:26:00;7.4;69
77700;DHT22;66867;42.658;23.320;2023-03-20T00:27:00;7.3;69
77700;DHT22;66867;42.658;23.320;2023-03-20T00:28:00;7.3;69
77700;DHT22;66867;42.658;23.320;2023-03-20T00:29:00;7.3;70
77700;DHT22;66867;42.658;23.320;2023-03-20T00:30:00;7.3;69
77700;DHT22;66867;42.658;23.320;2023-03-20T00:31:00;7.3;70
77700;DHT22;66867;42.658;23.320;2023-03-20T00:32:00;7.3;70
77700;DHT22;66867;42.658;23.320;2023-03-20T00:33:00;7.3;70
77700;DHT22;66867;42.658;23.320;2023-03-20T00:34:01;7.3;70
77700;DHT22;66867;42.658;23.320;2023-03-20T00:35:01;7.2;69
77700;DHT22;66867;42.658;23.320;2023-03-20T00:36:00;7.2;70
77700;DHT22;66867;42.658;23.320;2023-03-20T00:37:00;7.2;69
77700;DHT22;66867;42.658;23.320;2023-03-20T00:38:00;7.2;69
77700;DHT22;66867;42.658;23.320;2023-03-20T00:39:00;7.1;69
77700;DHT22;66867;42.658;23.320;2023-03-20T00:40:00;7.2;70
77700;DHT22;66867;42.658;23.320;2023-03-20T00:41:00;7.2;70
77700;DHT22;66867;42.658;23.320;2023-03-20T00:42:01;7.1;70
77700;DHT22;66867;42.658;23.320;2023-03-20T00:43:00;7.1;70
77700;DHT22;66867;42.658;23.320;2023-03-20T00:44:02;7.2;70
77700;DHT22;66867;42.658;23.320;2023-03-20T00:45:00;7.2;70
77700;DHT22;66867;42.658;23.320;2023-03-20T00:46:00;7.2;70
77700;DHT22;66867;42.658;23.320;2023-03-20T00:47:01;7.1;70
77700;DHT22;66867;42.658;23.320;2023-03-20T00:48:00;7.2;70
77700;DHT22;66867;42.658;23.320;2023-03-20T00:49:00;7.1;70
77700;DHT22;66867;42.658;23.320;2023-03-20T00:50:00;7.1;70
77700;DHT22;66867;42.658;23.320;2023-03-20T00:51:00;7.1;70
77700;DHT22;66867;42.658;23.320;2023-03-20T00:52:00;7.1;70
77700;DHT22;66867;42.658;23.320;2023-03-20T00:53:00;7.1;70
77700;DHT22;66867;42.658;23.320;2023-03-20T00:54:00;7.1;70
77700;DHT22;66867;42.658;23.320;2023-03-20T00:55:00;7.1;70
77700;DHT22;66867;42.658;23.320;2023-03-20T00:56:00;7.1;70
77700;DHT22;66867;42.658;23.320;2023-03-20T00:57:01;7.1;70
77700;DHT22;66867;42.658;23.320;2023-03-20T00:58:00;7.1;70
77700;DHT22;66867;42.658;23.320;2023-03-20T00:59:01;7.0;71
77700;DHT22;66867;42.658;23.320;2023-03-20T01:00:03;7.0;70
77700;DHT22;66867;42.658;23.320;2023-03-20T01:01:00;7.0;70
77700;DHT22;66867;42.658;23.320;2023-03-20T01:02:00;7.0;71
77700;DHT22;66867;42.658;23.320;2023-03-20T01:03:00;6.9;71
77700;DHT22;66867;42.658;23.320;2023-03-20T01:04:00;6.9;71
77700;DHT22;66867;42.658;23.320;2023-03-20T01:05:00;6.9;71
77700;DHT22;66867;42.658;23.320;2023-03-20T01:06:00;6.9;71
77700;DHT22;66867;42.658;23.320;2023-03-20T01:07:00;6.9;71
77700;DHT22;66867;42.658;23.320;2023-03-20T01:08:00;6.9;71
77700;DHT22;66867;42.658;23.320;2023-03-20T01:09:00;6.9;71
77700;DHT22;66867;42.658;23.320;2023-03-20T01:10:00;6.8;71
77700;DHT22;66867;42.658;23.320;2023-03-20T01:11:00;6.9;72
77700;DHT22;66867;42.658;23.320;2023-03-20T01:12:00;6.9;72
77700;DHT22;66867;42.658;23.320;2023-03-20T01:13:00;6.9;71
77700;DHT22;66867;42.658;23.320;2023-03-20T01:14:00;6.9;71
77700;DHT22;66867;42.658;23.320;2023-03-20T01:15:00;6.9;71
77700;DHT22;66867;42.658;23.320;2023-03-20T01:16:00;6.9;71
77700;DHT22;66867;42.658;23.320;2023-03-20T01:17:00;6.9;71
77700;DHT22;66867;42.658;23.320;2023-03-20T01:18:00;6.9;71
77700;DHT22;66867;42.658;23.320;2023-03-20T01:19:00;6.9;72
77700;DHT22;66867;42.658;23.320;2023-03-20T01:20:00;6.9;72
77700;DHT22;66867;42.658;23.320;2023-03-20T01:21:00;6.8;72
77700;DHT22;66867;42.658;23.320;2023-03-20T01:22:00;6.8;71
77700;DHT22;66867;42.658;23.320;2023-03-20T01:23:00;6.7;72
77700;DHT22;66867;42.658;23.320;2023-03-20T01:24:00;6.7;72
77700;DHT22;66867;42.658;23.320;2023-03-20T01:25:00;6.7;72
77700;DHT22;66867;42.658;23.320;2023-03-20T01:26:00;6.7;72
77700;DHT22;66867;42.658;23.320;2023-03-20T01:27:00;6.7;72
77700;DHT22;66867;42.658;23.320;2023-03-20T01:28:00;6.7;72
77700;DHT22;66867;42.658;23.320;2023-03-20T01:29:00;6.7;72
77700;DHT22;66867;42.658;23.320;2023-03-20T01:30:00;6.7;72
77700;DHT22;66867;42.658;23.320;2023-03-20T01:31:00;6.7;71
77700;DHT22;66867;42.658;23.320;2023-03-20T01:32:00;6.7;71
77700;DHT22;66867;42.658;23.320;2023-03-20T01:33:00;6.7;72
77700;DHT22;66867;42.658;23.320;2023-03-20T01:34:01;6.7;72
77700;DHT22;66867;42.658;23.320;2023-03-20T01:35:00;6.6;72
77700;DHT22;66867;42.658;23.320;2023-03-20T01:36:00;6.6;71
77700;DHT22;66867;42.658;23.320;2023-03-20T01:37:00;6.6;71
77700;DHT22;66867;42.658;23.320;2023-03-20T01:38:00;6.6;71
77700;DHT22;66867;42.658;23.320;2023-03-20T01:39:00;6.6;71
77700;DHT22;66867;42.658;23.320;2023-03-20T01:40:00;6.6;71
77700;DHT22;66867;42.658;23.320;2023-03-20T01:41:02;6.6;71
77700;DHT22;66867;42.658;23.320;2023-03-20T01:42:01;6.6;71
77700;DHT22;66867;42.658;23.320;2023-03-20T01:43:00;6.6;72
77700;DHT22;66867;42.658;23.320;2023-03-20T01:44:00;6.5;72
77700;DHT22;66867;42.658;23.320;2023-03-20T01:45:00;6.5;72
77700;DHT22;66867;42.658;23.320;2023-03-20T01:47:00;6.5;72
77700;DHT22;66867;42.658;23.320;2023-03-20T01:48:04;6.5;72
77700;DHT22;66867;42.658;23.320;2023-03-20T01:49:04;6.5;72
77700;DHT22;66867;42.658;23.320;2023-03-20T01:51:00;6.5;72
77700;DHT22;66867;42.658;23.320;2023-03-20T01:52:00;6.4;72
77700;DHT22;66867;42.658;23.320;2023-03-20T01:55:00;6.4;73
77700;DHT22;66867;42.658;23.320;2023-03-20T01:56:00;6.4;73
77700;DHT22;66867;42.658;23.320;2023-03-20T01:58:01;6.4;72
77700;DHT22;66867;42.658;23.320;2023-03-20T01:59:01;6.4;72
77700;DHT22;66867;42.658;23.320;2023-03-20T02:00:03;6.4;72
77700;DHT22;66867;42.658;23.320;2023-03-20T02:01:00;6.4;72
77700;DHT22;66867;42.658;23.320;2023-03-20T02:02:00;6.4;72
77700;DHT22;66867;42.658;23.320;2023-03-20T02:03:00;6.3;72
77700;DHT22;66867;42.658;23.320;2023-03-20T02:04:00;6.3;72
77700;DHT22;66867;42.658;23.320;2023-03-20T02:05:03;6.3;72
77700;DHT22;66867;42.658;23.320;2023-03-20T02:06:00;6.3;72
77700;DHT22;66867;42.658;23.320;2023-03-20T02:07:00;6.3;72
77700;DHT22;66867;42.658;23.320;2023-03-20T02:08:04;6.3;72
77700;DHT22;66867;42.658;23.320;2023-03-20T02:09:00;6.3;73
77700;DHT22;66867;42.658;23.320;2023-03-20T02:10:01;6.3;73
77700;DHT22;66867;42.658;23.320;2023-03-20T02:11:00;6.4;73
77700;DHT22;66867;42.658;23.320;2023-03-20T02:12:00;6.4;73
77700;DHT22;66867;42.658;23.320;2023-03-20T02:13:01;6.3;72
77700;DHT22;66867;42.658;23.320;2023-03-20T02:14:00;6.3;72
77700;DHT22;66867;42.658;23.320;2023-03-20T02:15:00;6.3;73
77700;DHT22;66867;42.658;23.320;2023-03-20T02:16:02;6.3;72
77700;DHT22;66867;42.658;23.320;2023-03-20T02:17:01;6.3;73
77700;DHT22;66867;42.658;23.320;2023-03-20T02:18:00;6.3;73
77700;DHT22;66867;42.658;23.320;2023-03-20T02:19:00;6.3;73
77700;DHT22;66867;42.658;23.320;2023-03-20T02:25:06;6.2;73
77700;DHT22;66867;42.658;23.320;2023-03-20T02:36:05;6.2;74
77700;DHT22;66867;42.658;23.320;2023-03-20T02:43:03;6.2;74
77700;DHT22;66867;42.658;23.320;2023-03-20T02:47:02;6.3;75
77700;DHT22;66867;42.658;23.320;2023-03-20T02:49:02;6.3;74
77700;DHT22;66867;42.658;23.320;2023-03-20T02:53:11;6.2;74
77700;DHT22;66867;42.658;23.320;2023-03-20T02:54:05;6.2;74
77700;DHT22;66867;42.658;23.320;2023-03-20T02:57:02;6.2;73
77700;DHT22;66867;42.658;23.320;2023-03-20T02:58:04;6.2;73
77700;DHT22;66867;42.658;23.320;2023-03-20T03:00:05;6.1;73
77700;DHT22;66867;42.658;23.320;2023-03-20T03:01:01;6.1;73
77700;DHT22;66867;42.658;23.320;2023-03-20T03:02:03;6.0;73
77700;DHT22;66867;42.658;23.320;2023-03-20T03:04:06;6.0;73
77700;DHT22;66867;42.658;23.320;2023-03-20T03:05:02;6.0;74
77700;DHT22;66867;42.658;23.320;2023-03-20T03:06:01;6.0;73
77700;DHT22;66867;42.658;23.320;2023-03-20T03:07:00;6.0;73
77700;DHT22;66867;42.658;23.320;2023-03-20T03:08:00;6.0;74
77700;DHT22;66867;42.658;23.320;2023-03-20T03:09:02;6.0;74
77700;DHT22;66867;42.658;23.320;2023-03-20T03:10:02;6.1;74
77700;DHT22;66867;42.658;23.320;2023-03-20T03:11:02;6.0;74
77700;DHT22;66867;42.658;23.320;2023-03-20T03:12:17;6.1;74
77700;DHT22;66867;42.658;23.320;2023-03-20T03:13:00;6.1;75
77700;DHT22;66867;42.658;23.320;2023-03-20T03:14:00;6.1;75
77700;DHT22;66867;42.658;23.320;2023-03-20T03:15:03;6.1;75
77700;DHT22;66867;42.658;23.320;2023-03-20T03:16:02;6.1;75
77700;DHT22;66867;42.658;23.320;2023-03-20T03:17:00;6.2;75
77700;DHT22;66867;42.658;23.320;2023-03-20T03:18:00;6.2;75
77700;DHT22;66867;42.658;23.320;2023-03-20T03:19:02;6.2;75
77700;DHT22;66867;42.658;23.320;2023-03-20T03:20:02;6.2;75
77700;DHT22;66867;42.658;23.320;2023-03-20T03:21:00;6.2;75
77700;DHT22;66867;42.658;23.320;2023-03-20T03:22:00;6.2;75
77700;DHT22;66867;42.658;23.320;2023-03-20T03:23:00;6.2;75
77700;DHT22;66867;42.658;23.320;2023-03-20T03:24:00;6.2;75
77700;DHT22;66867;42.658;23.320;2023-03-20T03:25:00;6.3;75
77700;DHT22;66867;42.658;23.320;2023-03-20T03:26:01;6.2;75
77700;DHT22;66867;42.658;23.320;2023-03-20T03:27:01;6.2;74
77700;DHT22;66867;42.658;23.320;2023-03-20T03:28:04;6.2;74
77700;DHT22;66867;42.658;23.320;2023-03-20T03:29:01;6.1;74
77700;DHT22;66867;42.658;23.320;2023-03-20T03:30:05;6.1;74
77700;DHT22;66867;42.658;23.320;2023-03-20T03:31:00;6.1;74
77700;DHT22;66867;42.658;23.320;2023-03-20T03:32:00;6.1;74
77700;DHT22;66867;42.658;23.320;2023-03-20T03:34:00;6.0;74
77700;DHT22;66867;42.658;23.320;2023-03-20T03:35:01;6.0;74
77700;DHT22;66867;42.658;23.320;2023-03-20T03:36:04;6.0;74
77700;DHT22;66867;42.658;23.320;2023-03-20T03:37:10;6.0;74
77700;DHT22;66867;42.658;23.320;2023-03-20T03:40:02;6.0;74
77700;DHT22;66867;42.658;23.320;2023-03-20T03:43:01;6.0;74
77700;DHT22;66867;42.658;23.320;2023-03-20T03:45:02;6.0;75
77700;DHT22;66867;42.658;23.320;2023-03-20T03:46:02;6.0;75
77700;DHT22;66867;42.658;23.320;2023-03-20T03:48:09;6.1;75
77700;DHT22;66867;42.658;23.320;2023-03-20T03:49:00;6.1;75
77700;DHT22;66867;42.658;23.320;2023-03-20T03:50:01;6.1;75
77700;DHT22;66867;42.658;23.320;2023-03-20T03:51:01;6.1;75
77700;DHT22;66867;42.658;23.320;2023-03-20T03:52:02;6.1;75
77700;DHT22;66867;42.658;23.320;2023-03-20T03:53:01;6.1;75
77700;DHT22;66867;42.658;23.320;2023-03-20T03:54:03;6.2;75
77700;DHT22;66867;42.658;23.320;2023-03-20T03:55:08;6.2;75
77700;DHT22;66867;42.658;23.320;2023-03-20T03:56:01;6.2;75
77700;DHT22;66867;42.658;23.320;2023-03-20T03:57:00;6.2;75
77700;DHT22;66867;42.658;23.320;2023-03-20T03:58:02;6.2;75
77700;DHT22;66867;42.658;23.320;2023-03-20T03:59:01;6.2;75
77700;DHT22;66867;42.658;23.320;2023-03-20T04:00:00;6.2;74
77700;DHT22;66867;42.658;23.320;2023-03-20T04:01:00;6.1;74
77700;DHT22;66867;42.658;23.320;2023-03-20T04:02:00;6.1;74
77700;DHT22;66867;42.658;23.320;2023-03-20T04:03:00;6.0;73
77700;DHT22;66867;42.658;23.320;2023-03-20T04:04:01;6.0;73
77700;DHT22;66867;42.658;23.320;2023-03-20T04:05:00;6.0;73
77700;DHT22;66867;42.658;23.320;2023-03-20T04:06:00;5.9;73
77700;DHT22;66867;42.658;23.320;2023-03-20T04:07:00;5.9;73
77700;DHT22;66867;42.658;23.320;2023-03-20T04:08:00;5.9;73
77700;DHT22;66867;42.658;23.320;2023-03-20T04:09:00;5.9;74
77700;DHT22;66867;42.658;23.320;2023-03-20T04:10:00;5.9;74
77700;DHT22;66867;42.658;23.320;2023-03-20T04:11:00;5.8;74
77700;DHT22;66867;42.658;23.320;2023-03-20T04:12:00;5.8;74
77700;DHT22;66867;42.658;23.320;2023-03-20T04:13:00;5.8;74
77700;DHT22;66867;42.658;23.320;2023-03-20T04:14:00;5.8;74
77700;DHT22;66867;42.658;23.320;2023-03-20T04:15:00;5.7;74
77700;DHT22;66867;42.658;23.320;2023-03-20T04:16:00;5.8;74
77700;DHT22;66867;42.658;23.320;2023-03-20T04:17:00;5.8;74
77700;DHT22;66867;42.658;23.320;2023-03-20T04:18:00;5.8;74
77700;DHT22;66867;42.658;23.320;2023-03-20T04:19:00;5.7;74
77700;DHT22;66867;42.658;23.320;2023-03-20T04:20:00;5.7;74
77700;DHT22;66867;42.658;23.320;2023-03-20T04:21:00;5.7;74
77700;DHT22;66867;42.658;23.320;2023-03-20T04:22:00;5.7;74
77700;DHT22;66867;42.658;23.320;2023-03-20T04:23:00;5.7;74
77700;DHT22;66867;42.658;23.320;2023-03-20T04:24:00;5.7;74
77700;DHT22;66867;42.658;23.320;2023-03-20T04:25:00;5.7;74
77700;DHT22;66867;42.658;23.320;2023-03-20T04:26:00;5.7;75
77700;DHT22;66867;42.658;23.320;2023-03-20T04:27:00;5.7;75
77700;DHT22;66867;42.658;23.320;2023-03-20T04:28:00;5.7;75
77700;DHT22;66867;42.658;23.320;2023-03-20T04:29:00;5.6;75
77700;DHT22;66867;42.658;23.320;2023-03-20T04:30:00;5.6;75
77700;DHT22;66867;42.658;23.320;2023-03-20T04:31:00;5.6;75
77700;DHT22;66867;42.658;23.320;2023-03-20T04:32:00;5.6;75
77700;DHT22;66867;42.658;23.320;2023-03-20T04:33:00;5.6;75
77700;DHT22;66867;42.658;23.320;2023-03-20T04:34:00;5.7;75
77700;DHT22;66867;42.658;23.320;2023-03-20T04:35:00;5.6;75
77700;DHT22;66867;42.658;23.320;2023-03-20T04:36:00;5.6;74
77700;DHT22;66867;42.658;23.320;2023-03-20T04:37:00;5.6;74
77700;DHT22;66867;42.658;23.320;2023-03-20T04:38:00;5.6;74
77700;DHT22;66867;42.658;23.320;2023-03-20T04:39:00;5.6;75
77700;DHT22;66867;42.658;23.320;2023-03-20T04:40:00;5.6;75
77700;DHT22;66867;42.658;23.320;2023-03-20T04:41:00;5.6;75
77700;DHT22;66867;42.658;23.320;2023-03-20T04:42:00;5.6;75
77700;DHT22;66867;42.658;23.320;2023-03-20T04:43:00;5.6;75
77700;DHT22;66867;42.658;23.320;2023-03-20T04:44:00;5.6;75
77700;DHT22;66867;42.658;23.320;2023-03-20T04:45:00;5.6;76
77700;DHT22;66867;42.658;23.320;2023-03-20T04:46:00;5.6;75
77700;DHT22;66867;42.658;23.320;2023-03-20T04:47:00;5.6;76
77700;DHT22;66867;42.658;23.320;2023-03-20T04:48:00;5.6;76
77700;DHT22;66867;42.658;23.320;2023-03-20T04:49:00;5.6;76
77700;DHT22;66867;42.658;23.320;2023-03-20T04:50:00;5.6;76
77700;DHT22;66867;42.658;23.320;2023-03-20T04:51:00;5.6;76
77700;DHT22;66867;42.658;23.320;2023-03-20T04:52:00;5.6;76
77700;DHT22;66867;42.658;23.320;2023-03-20T04:53:00;5.6;76
77700;DHT22;66867;42.658;23.320;2023-03-20T04:54:00;5.6;76
77700;DHT22;66867;42.658;23.320;2023-03-20T04:55:00;5.6;76
77700;DHT22;66867;42.658;23.320;2023-03-20T04:56:00;5.7;76
77700;DHT22;66867;42.658;23.320;2023-03-20T04:57:00;5.7;77
77700;DHT22;66867;42.658;23.320;2023-03-20T04:58:00;5.7;77
77700;DHT22;66867;42.658;23.320;2023-03-20T04:59:00;5.7;78
77700;DHT22;66867;42.658;23.320;2023-03-20T05:00:00;5.8;77
77700;DHT22;66867;42.658;23.320;2023-03-20T05:01:00;5.8;78
77700;DHT22;66867;42.658;23.320;2023-03-20T05:02:00;5.8;78
77700;DHT22;66867;42.658;23.320;2023-03-20T05:03:00;5.9;78
77700;DHT22;66867;42.658;23.320;2023-03-20T05:04:01;5.9;78
77700;DHT22;66867;42.658;23.320;2023-03-20T05:05:00;5.9;78
77700;DHT22;66867;42.658;23.320;2023-03-20T05:06:00;6.0;78
77700;DHT22;66867;42.658;23.320;2023-03-20T05:07:00;6.0;78
77700;DHT22;66867;42.658;23.320;2023-03-20T05:08:00;6.1;78
77700;DHT22;66867;42.658;23.320;2023-03-20T05:09:00;6.1;78
77700;DHT22;66867;42.658;23.320;2023-03-20T05:10:00;6.1;78
77700;DHT22;66867;42.658;23.320;2023-03-20T05:11:00;6.2;78
77700;DHT22;66867;42.658;23.320;2023-03-20T05:12:00;6.2;77
77700;DHT22;66867;42.658;23.320;2023-03-20T05:13:00;6.2;77
77700;DHT22;66867;42.658;23.320;2023-03-20T05:14:00;6.3;77
77700;DHT22;66867;42.658;23.320;2023-03-20T05:15:00;6.3;77
77700;DHT22;66867;42.658;23.320;2023-03-20T05:16:00;6.4;77
77700;DHT22;66867;42.658;23.320;2023-03-20T05:17:00;6.4;77
77700;DHT22;66867;42.658;23.320;2023-03-20T05:18:00;6.4;77
77700;DHT22;66867;42.658;23.320;2023-03-20T05:19:00;6.4;77
77700;DHT22;66867;42.658;23.320;2023-03-20T05:20:00;6.4;78
77700;DHT22;66867;42.658;23.320;2023-03-20T05:21:00;6.5;78
77700;DHT22;66867;42.658;23.320;2023-03-20T05:22:00;6.5;78
77700;DHT22;66867;42.658;23.320;2023-03-20T05:23:00;6.5;78
77700;DHT22;66867;42.658;23.320;2023-03-20T05:24:00;6.5;78
77700;DHT22;66867;42.658;23.320;2023-03-20T05:25:00;6.5;78
77700;DHT22;66867;42.658;23.320;2023-03-20T05:26:00;6.5;78
77700;DHT22;66867;42.658;23.320;2023-03-20T05:27:00;6.5;77
77700;DHT22;66867;42.658;23.320;2023-03-20T05:28:00;6.6;77
77700;DHT22;66867;42.658;23.320;2023-03-20T05:29:00;6.5;78
77700;DHT22;66867;42.658;23.320;2023-03-20T05:30:00;6.6;77
77700;DHT22;66867;42.658;23.320;2023-03-20T05:31:00;6.6;77
77700;DHT22;66867;42.658;23.320;2023-03-20T05:32:00;6.6;77
77700;DHT22;66867;42.658;23.320;2023-03-20T05:33:00;6.7;77
77700;DHT22;66867;42.658;23.320;2023-03-20T05:34:00;6.7;77
77700;DHT22;66867;42.658;23.320;2023-03-20T05:35:00;6.7;77
77700;DHT22;66867;42.658;23.320;2023-03-20T05:36:00;6.8;78
77700;DHT22;66867;42.658;23.320;2023-03-20T05:37:00;6.8;78
77700;DHT22;66867;42.658;23.320;2023-03-20T05:38:00;6.8;78
77700;DHT22;66867;42.658;23.320;2023-03-20T05:39:00;6.9;77
77700;DHT22;66867;42.658;23.320;2023-03-20T05:40:00;7.0;77
77700;DHT22;66867;42.658;23.320;2023-03-20T05:41:00;7.0;77
77700;DHT22;66867;42.658;23.320;2023-03-20T05:42:00;7.0;77
77700;DHT22;66867;42.658;23.320;2023-03-20T05:43:00;7.0;77
77700;DHT22;66867;42.658;23.320;2023-03-20T05:44:00;7.1;77
77700;DHT22;66867;42.658;23.320;2023-03-20T05:45:00;7.1;77
77700;DHT22;66867;42.658;23.320;2023-03-20T05:46:00;7.1;77
77700;DHT22;66867;42.658;23.320;2023-03-20T05:47:00;7.2;77
77700;DHT22;66867;42.658;23.320;2023-03-20T05:48:00;7.2;77
77700;DHT22;66867;42.658;23.320;2023-03-20T05:49:00;7.3;77
77700;DHT22;66867;42.658;23.320;2023-03-20T05:51:00;7.4;77
77700;DHT22;66867;42.658;23.320;2023-03-20T05:52:00;7.4;77
77700;DHT22;66867;42.658;23.320;2023-03-20T05:53:00;7.5;77
77700;DHT22;66867;42.658;23.320;2023-03-20T05:54:00;7.5;77
77700;DHT22;66867;42.658;23.320;2023-03-20T05:55:00;7.5;75
77700;DHT22;66867;42.658;23.320;2023-03-20T05:56:00;7.6;75
77700;DHT22;66867;42.658;23.320;2023-03-20T05:57:00;7.6;75
77700;DHT22;66867;42.658;23.320;2023-03-20T05:58:00;7.6;75
77700;DHT22;66867;42.658;23.320;2023-03-20T05:59:00;7.7;75
77700;DHT22;66867;42.658;23.320;2023-03-20T06:00:00;7.7;75
77700;DHT22;66867;42.658;23.320;2023-03-20T06:01:00;7.8;75
77700;DHT22;66867;42.658;23.320;2023-03-20T06:03:00;7.9;74
77700;DHT22;66867;42.658;23.320;2023-03-20T06:04:00;7.9;74
77700;DHT22;66867;42.658;23.320;2023-03-20T06:05:00;8.0;73
77700;DHT22;66867;42.658;23.320;2023-03-20T06:06:00;8.1;73
77700;DHT22;66867;42.658;23.320;2023-03-20T06:07:00;8.1;73
77700;DHT22;66867;42.658;23.320;2023-03-20T06:08:00;8.2;73
77700;DHT22;66867;42.658;23.320;2023-03-20T06:09:00;8.2;73
77700;DHT22;66867;42.658;23.320;2023-03-20T06:10:00;8.2;73
77700;DHT22;66867;42.658;23.320;2023-03-20T06:11:00;8.3;73
77700;DHT22;66867;42.658;23.320;2023-03-20T06:12:00;8.3;72
77700;DHT22;66867;42.658;23.320;2023-03-20T06:13:00;8.3;72
77700;DHT22;66867;42.658;23.320;2023-03-20T06:14:00;8.4;72
77700;DHT22;66867;42.658;23.320;2023-03-20T06:15:00;8.4;72
77700;DHT22;66867;42.658;23.320;2023-03-20T06:16:00;8.4;72
77700;DHT22;66867;42.658;23.320;2023-03-20T06:17:00;8.5;72
77700;DHT22;66867;42.658;23.320;2023-03-20T06:18:00;8.5;72
77700;DHT22;66867;42.658;23.320;2023-03-20T06:19:00;8.6;72
77700;DHT22;66867;42.658;23.320;2023-03-20T06:20:00;8.6;72
77700;DHT22;66867;42.658;23.320;2023-03-20T06:21:00;8.7;72
77700;DHT22;66867;42.658;23.320;2023-03-20T06:22:00;8.7;72
77700;DHT22;66867;42.658;23.320;2023-03-20T06:23:00;8.8;72
77700;DHT22;66867;42.658;23.320;2023-03-20T06:24:00;8.8;71
77700;DHT22;66867;42.658;23.320;2023-03-20T06:25:00;8.9;71
77700;DHT22;66867;42.658;23.320;2023-03-20T06:26:00;8.9;71
77700;DHT22;66867;42.658;23.320;2023-03-20T06:27:00;9.0;71
77700;DHT22;66867;42.658;23.320;2023-03-20T06:28:00;9.0;71
77700;DHT22;66867;42.658;23.320;2023-03-20T06:29:00;9.1;70
77700;DHT22;66867;42.658;23.320;2023-03-20T06:30:00;9.1;70
77700;DHT22;66867;42.658;23.320;2023-03-20T06:31:00;9.2;70
77700;DHT22;66867;42.658;23.320;2023-03-20T06:32:00;9.2;70
77700;DHT22;66867;42.658;23.320;2023-03-20T06:33:00;9.3;70
77700;DHT22;66867;42.658;23.320;2023-03-20T06:34:00;9.4;69
77700;DHT22;66867;42.658;23.320;2023-03-20T06:35:00;9.4;69
77700;DHT22;66867;42.658;23.320;2023-03-20T06:36:00;9.5;69
77700;DHT22;66867;42.658;23.320;2023-03-20T06:37:00;9.6;69
77700;DHT22;66867;42.658;23.320;2023-03-20T06:38:00;9.6;69
77700;DHT22;66867;42.658;23.320;2023-03-20T06:39:00;9.6;69
77700;DHT22;66867;42.658;23.320;2023-03-20T06:40:00;9.6;69
77700;DHT22;66867;42.658;23.320;2023-03-20T06:41:00;9.7;68
77700;DHT22;66867;42.658;23.320;2023-03-20T06:42:00;9.7;68
77700;DHT22;66867;42.658;23.320;2023-03-20T06:47:00;10.0;68
77700;DHT22;66867;42.658;23.320;2023-03-20T06:48:00;10.0;68
77700;DHT22;66867;42.658;23.320;2023-03-20T06:49:00;10.1;68
77700;DHT22;66867;42.658;23.320;2023-03-20T06:50:00;10.2;68
77700;DHT22;66867;42.658;23.320;2023-03-20T06:51:00;10.3;67
77700;DHT22;66867;42.658;23.320;2023-03-20T06:52:00;10.3;67
77700;DHT22;66867;42.658;23.320;2023-03-20T06:53:00;10.4;67
77700;DHT22;66867;42.658;23.320;2023-03-20T06:54:00;10.4;67
77700;DHT22;66867;42.658;23.320;2023-03-20T06:55:00;10.5;67
77700;DHT22;66867;42.658;23.320;2023-03-20T06:56:00;10.6;67
77700;DHT22;66867;42.658;23.320;2023-03-20T06:57:00;10.6;66
77700;DHT22;66867;42.658;23.320;2023-03-20T06:58:00;10.7;66
77700;DHT22;66867;42.658;23.320;2023-03-20T06:59:00;10.8;65
77700;DHT22;66867;42.658;23.320;2023-03-20T07:00:00;10.8;65
77700;DHT22;66867;42.658;23.320;2023-03-20T07:01:00;10.9;65
77700;DHT22;66867;42.658;23.320;2023-03-20T07:02:00;10.9;65
77700;DHT22;66867;42.658;23.320;2023-03-20T07:03:00;11.0;65
77700;DHT22;66867;42.658;23.320;2023-03-20T07:04:00;11.0;65
77700;DHT22;66867;42.658;23.320;2023-03-20T07:05:00;11.1;66
77700;DHT22;66867;42.658;23.320;2023-03-20T07:06:00;11.1;66
77700;DHT22;66867;42.658;23.320;2023-03-20T07:07:00;11.2;65
77700;DHT22;66867;42.658;23.320;2023-03-20T07:08:00;11.4;65
77700;DHT22;66867;42.658;23.320;2023-03-20T07:09:00;11.4;64
77700;DHT22;66867;42.658;23.320;2023-03-20T07:10:00;11.5;64
77700;DHT22;66867;42.658;23.320;2023-03-20T07:11:00;11.5;63
77700;DHT22;66867;42.658;23.320;2023-03-20T07:12:00;11.6;64
77700;DHT22;66867;42.658;23.320;2023-03-20T07:13:00;11.6;63
77700;DHT22;66867;42.658;23.320;2023-03-20T07:14:00;11.7;63
77700;DHT22;66867;42.658;23.320;2023-03-20T07:15:00;11.7;63
77700;DHT22;66867;42.658;23.320;2023-03-20T07:16:00;11.7;63
77700;DHT22;66867;42.658;23.320;2023-03-20T07:17:00;11.8;63
77700;DHT22;66867;42.658;23.320;2023-03-20T07:18:00;11.8;62
77700;DHT22;66867;42.658;23.320;2023-03-20T07:19:00;12.0;62
77700;DHT22;66867;42.658;23.320;2023-03-20T07:20:00;12.0;62
77700;DHT22;66867;42.658;23.320;2023-03-20T07:21:01;12.0;62
77700;DHT22;66867;42.658;23.320;2023-03-20T07:22:00;12.1;62
77700;DHT22;66867;42.658;23.320;2023-03-20T07:23:00;12.1;62
77700;DHT22;66867;42.658;23.320;2023-03-20T07:24:00;12.2;62
77700;DHT22;66867;42.658;23.320;2023-03-20T07:25:00;12.2;62
77700;DHT22;66867;42.658;23.320;2023-03-20T07:26:00;12.3;61
77700;DHT22;66867;42.658;23.320;2023-03-20T07:27:00;12.4;62
77700;DHT22;66867;42.658;23.320;2023-03-20T07:28:00;12.5;62
77700;DHT22;66867;42.658;23.320;2023-03-20T07:29:00;12.5;61
77700;DHT22;66867;42.658;23.320;2023-03-20T07:30:00;12.6;60
77700;DHT22;66867;42.658;23.320;2023-03-20T07:31:00;12.6;60
77700;DHT22;66867;42.658;23.320;2023-03-20T07:32:00;12.7;60
77700;DHT22;66867;42.658;23.320;2023-03-20T07:33:00;12.7;60